Time;durP1;ratioP1;P1;durP2;ratioP2;P2;SDS_P1;SDS_P2;PMS_P1;PMS_P2;Temp;Humidity;BMP_temperature;BMP_pressure;BME280_temperature;BME280_humidity;BME280_pressure;Samples;Min_cycle;Max_cycle;Signal;HPM_P1;HPM_P2
2022/03/30 00:00:42;;;;;;;5.57;2.67;;;5.30;64.00;;;;;;604138;235;26613;-65
2022/03/30 00:03:09;;;;;;;8.18;3.47;;;5.30;63.30;;;;;;609341;231;26849;-65
2022/03/30 00:05:36;;;;;;;8.50;2.47;;;5.30;63.40;;;;;;609961;234;26617;-65
2022/03/30 00:08:05;;;;;;;3.03;1.93;;;5.20;63.60;;;;;;609359;235;26855;-66
2022/03/30 00:10:32;;;;;;;6.53;2.65;;;5.30;63.90;;;;;;605238;237;26632;-66
2022/03/30 00:13:00;;;;;;;6.57;2.72;;;5.20;64.30;;;;;;602500;236;26832;-66
2022/03/30 00:15:27;;;;;;;4.60;2.70;;;5.20;64.50;;;;;;602098;236;26632;-66
2022/03/30 00:17:55;;;;;;;7.45;2.70;;;5.20;64.60;;;;;;604986;236;26843;-65
2022/03/30 00:20:23;;;;;;;4.37;3.08;;;5.20;64.70;;;;;;607274;236;26636;-65
2022/03/30 00:22:51;;;;;;;10.75;3.17;;;5.20;65.50;;;;;;608166;236;26636;-66
2022/03/30 00:25:20;;;;;;;8.93;2.58;;;5.20;66.10;;;;;;603278;238;26613;-65
2022/03/30 00:27:46;;;;;;;6.07;2.47;;;5.10;66.00;;;;;;604802;235;26823;-65
2022/03/30 00:30:13;;;;;;;5.97;2.47;;;5.20;64.70;;;;;;607006;235;26588;-65
2022/03/30 00:32:40;;;;;;;4.68;2.35;;;5.10;64.90;;;;;;604622;237;26792;-65
2022/03/30 00:35:08;;;;;;;3.87;2.22;;;5.10;65.20;;;;;;603523;236;26600;-65
2022/03/30 00:37:36;;;;;;;8.20;2.78;;;5.10;65.20;;;;;;601643;238;26631;-65
2022/03/30 00:40:04;;;;;;;4.97;2.47;;;5.00;65.90;;;;;;602988;236;26598;-65
2022/03/30 00:42:32;;;;;;;9.00;2.47;;;5.00;65.90;;;;;;607870;235;26857;-65
2022/03/30 00:45:00;;;;;;;3.95;2.03;;;5.00;65.80;;;;;;607014;236;26624;-65
2022/03/30 00:47:27;;;;;;;8.30;2.83;;;5.00;66.50;;;;;;602843;235;26635;-65
2022/03/30 00:49:54;;;;;;;5.90;2.60;;;5.00;66.00;;;;;;605592;236;26883;-65
2022/03/30 00:52:22;;;;;;;7.23;2.73;;;5.00;66.70;;;;;;604207;236;26595;-65
2022/03/30 00:54:49;;;;;;;3.83;2.20;;;5.10;66.30;;;;;;604253;237;26825;-66
2022/03/30 00:57:17;;;;;;;8.73;2.85;;;5.00;65.80;;;;;;602740;237;26630;-65
2022/03/30 00:59:45;;;;;;;4.17;2.70;;;5.00;66.40;;;;;;605980;235;26621;-65
2022/03/30 01:02:12;;;;;;;3.00;2.28;;;5.00;66.40;;;;;;604719;235;26591;-65
2022/03/30 01:04:39;;;;;;;6.83;2.37;;;5.00;67.20;;;;;;609778;235;26589;-65
2022/03/30 01:07:06;;;;;;;3.67;2.33;;;5.00;66.10;;;;;;609464;235;26932;-64
2022/03/30 01:09:34;;;;;;;8.70;2.80;;;5.00;66.40;;;;;;610654;235;26612;-64
2022/03/30 01:12:01;;;;;;;3.23;2.17;;;5.00;67.20;;;;;;608829;235;26618;-64
2022/03/30 01:14:29;;;;;;;5.63;2.50;;;5.00;67.90;;;;;;603855;235;26625;-64
2022/03/30 01:16:56;;;;;;;7.90;2.60;;;5.00;67.80;;;;;;602618;235;26728;-64
2022/03/30 01:19:24;;;;;;;5.00;2.03;;;5.00;68.10;;;;;;612956;234;26577;-63
2022/03/30 01:21:50;;;;;;;8.53;4.90;;;5.00;66.90;;;;;;605274;234;27295;-63
2022/03/30 01:24:17;;;;;;;16.23;6.50;;;5.00;68.60;;;;;;605126;236;26627;-63
2022/03/30 01:26:45;;;;;;;8.33;5.73;;;5.00;67.20;;;;;;605142;237;26669;-63
2022/03/30 01:34:31;;;;;;;10.37;4.57;;;4.90;67.80;;;;;;605258;236;26599;-63
2022/03/30 01:36:59;;;;;;;7.00;4.23;;;4.90;68.00;;;;;;604742;236;26611;-63
2022/03/30 01:39:26;;;;;;;6.40;3.37;;;4.90;67.50;;;;;;602495;235;26843;-62
2022/03/30 01:41:53;;;;;;;9.30;3.90;;;4.80;67.70;;;;;;603583;238;26593;-63
2022/03/30 01:44:21;;;;;;;6.83;3.53;;;4.90;69.00;;;;;;603756;235;26840;-63
2022/03/30 01:46:49;;;;;;;2.17;1.97;;;4.90;70.60;;;;;;604471;236;26614;-63
2022/03/30 01:49:21;;;;;;;7.20;2.80;;;4.90;68.20;;;;;;604240;236;26685;-63
2022/03/30 01:51:44;;;;;;;4.70;2.10;;;4.90;68.20;;;;;;608578;235;26832;-63
2022/03/30 01:54:11;;;;;;;3.67;2.20;;;4.80;69.00;;;;;;603934;235;26667;-64
2022/03/30 01:56:38;;;;;;;9.60;2.97;;;4.90;71.00;;;;;;602808;234;27316;-63
2022/03/30 01:59:06;;;;;;;3.37;2.40;;;4.90;69.50;;;;;;608220;232;26597;-62
2022/03/30 02:01:34;;;;;;;7.57;3.03;;;4.80;68.20;;;;;;606047;235;26688;-62
2022/03/30 02:04:01;;;;;;;5.37;2.90;;;4.80;68.30;;;;;;604640;236;26599;-63
2022/03/30 02:06:28;;;;;;;7.40;2.80;;;4.80;68.40;;;;;;606611;234;26642;-63
2022/03/30 02:08:56;;;;;;;7.10;2.90;;;4.90;70.10;;;;;;603944;238;26828;-62
2022/03/30 02:11:24;;;;;;;6.40;2.53;;;4.80;68.50;;;;;;603987;236;26599;-62
2022/03/30 02:13:50;;;;;;;7.10;2.97;;;4.80;68.70;;;;;;603404;235;26849;-63
2022/03/30 02:16:18;;;;;;;4.67;2.80;;;4.70;69.50;;;;;;604335;234;26618;-63
2022/03/30 02:18:46;;;;;;;5.90;3.37;;;4.70;68.90;;;;;;604387;238;26555;-63
2022/03/30 02:21:13;;;;;;;7.00;2.43;;;4.80;69.70;;;;;;608200;236;26857;-63
2022/03/30 02:23:41;;;;;;;5.27;2.87;;;4.80;69.70;;;;;;606854;235;26639;-63
2022/03/30 02:26:07;;;;;;;6.57;2.50;;;4.80;69.10;;;;;;604118;234;26880;-63
2022/03/30 02:28:35;;;;;;;6.20;3.30;;;4.70;69.10;;;;;;604450;237;26583;-63
2022/03/30 02:31:03;;;;;;;7.87;2.83;;;4.70;69.30;;;;;;605450;232;26605;-63
2022/03/30 02:33:30;;;;;;;9.50;3.47;;;4.60;69.20;;;;;;615096;234;26803;-64
2022/03/30 02:35:57;;;;;;;6.23;2.77;;;4.60;69.30;;;;;;614991;234;26613;-63
2022/03/30 02:38:25;;;;;;;7.27;2.77;;;4.60;69.40;;;;;;612685;234;26614;-63
2022/03/30 02:40:53;;;;;;;5.20;2.37;;;4.80;71.20;;;;;;612944;234;26586;-63
2022/03/30 02:43:21;;;;;;;6.97;2.80;;;4.80;69.80;;;;;;612549;235;26588;-63
2022/03/30 02:45:48;;;;;;;5.67;2.83;;;4.80;69.80;;;;;;608984;235;26653;-63
2022/03/30 02:48:18;;;;;;;4.13;2.30;;;4.70;69.90;;;;;;603025;235;26589;-64
2022/03/30 02:50:47;;;;;;;4.70;2.70;;;4.70;71.00;;;;;;604854;236;26594;-63
2022/03/30 02:53:13;;;;;;;6.20;2.90;;;4.70;70.60;;;;;;604255;237;26863;-66
2022/03/30 02:55:41;;;;;;;2.67;2.03;;;4.70;71.20;;;;;;607632;234;26635;-64
2022/03/30 02:58:10;;;;;;;5.77;2.90;;;4.70;70.20;;;;;;603384;236;26584;-63
2022/03/30 03:00:38;;;;;;;2.93;2.30;;;4.60;70.90;;;;;;604034;238;26801;-63
2022/03/30 03:03:05;;;;;;;6.83;3.03;;;4.60;70.70;;;;;;603973;237;26590;-63
2022/03/30 03:05:32;;;;;;;3.10;2.40;;;4.60;72.60;;;;;;610915;235;26639;-63
2022/03/30 03:07:59;;;;;;;6.77;3.23;;;4.60;70.40;;;;;;612441;234;26654;-62
2022/03/30 03:10:26;;;;;;;9.70;3.23;;;4.50;70.50;;;;;;606874;234;26823;-62
2022/03/30 03:12:54;;;;;;;7.60;3.33;;;4.40;70.80;;;;;;601746;237;26669;-63
2022/03/30 03:15:22;;;;;;;4.47;2.57;;;4.40;72.30;;;;;;603610;238;26613;-62
2022/03/30 03:17:50;;;;;;;6.97;2.87;;;4.40;71.30;;;;;;604496;237;26618;-62
2022/03/30 03:20:17;;;;;;;5.20;2.83;;;4.40;71.30;;;;;;604486;238;26816;-63
2022/03/30 03:22:45;;;;;;;6.00;2.53;;;4.40;70.80;;;;;;605490;235;26629;-63
2022/03/30 03:25:12;;;;;;;6.90;2.45;;;4.30;71.70;;;;;;609705;232;27287;-63
2022/03/30 03:27:40;;;;;;;6.07;2.67;;;4.30;74.10;;;;;;609111;236;26581;-62
2022/03/30 03:30:10;;;;;;;8.90;2.63;;;4.30;71.80;;;;;;609182;236;26585;-63
2022/03/30 03:32:37;;;;;;;6.63;2.73;;;4.30;71.80;;;;;;609906;235;26581;-62
2022/03/30 03:35:04;;;;;;;8.40;3.60;;;4.20;71.40;;;;;;611263;232;26890;-62
2022/03/30 03:37:31;;;;;;;6.40;3.50;;;4.20;71.70;;;;;;602861;234;27155;-62
2022/03/30 03:39:59;;;;;;;9.10;3.57;;;4.10;72.20;;;;;;602435;232;26560;-62
2022/03/30 03:42:27;;;;;;;10.07;3.40;;;4.00;72.80;;;;;;602387;233;26580;-62
2022/03/30 03:44:55;;;;;;;9.77;3.40;;;4.00;73.10;;;;;;602096;238;26906;-62
2022/03/30 03:47:23;;;;;;;7.10;2.97;;;4.00;72.70;;;;;;602052;237;26827;-62
2022/03/30 03:49:50;;;;;;;11.10;3.13;;;4.00;72.70;;;;;;602147;239;27230;-62
2022/03/30 03:52:17;;;;;;;6.97;3.30;;;4.00;73.00;;;;;;602130;239;26583;-62
2022/03/30 03:54:45;;;;;;;7.43;3.00;;;3.90;74.10;;;;;;601841;239;26859;-62
2022/03/30 03:57:13;;;;;;;8.83;3.03;;;3.90;73.90;;;;;;601826;239;26614;-62
2022/03/30 03:59:41;;;;;;;9.27;3.63;;;4.00;75.50;;;;;;601819;238;26601;-62
2022/03/30 04:02:09;;;;;;;8.20;3.47;;;3.90;75.40;;;;;;601862;239;26600;-63
2022/03/30 04:04:37;;;;;;;8.50;3.10;;;3.90;74.90;;;;;;601754;239;26820;-62
2022/03/30 04:07:04;;;;;;;11.57;3.00;;;3.90;75.40;;;;;;601762;238;26589;-62
2022/03/30 04:09:31;;;;;;;6.67;2.80;;;3.90;74.40;;;;;;601794;239;26576;-63
2022/03/30 04:11:58;;;;;;;5.07;3.10;;;3.80;75.50;;;;;;601581;238;26865;-63
2022/03/30 04:14:25;;;;;;;6.13;2.80;;;3.80;75.00;;;;;;601545;237;26677;-62
2022/03/30 04:16:52;;;;;;;4.77;2.40;;;3.90;76.40;;;;;;601509;239;27266;-62
2022/03/30 04:19:20;;;;;;;6.73;2.50;;;3.80;76.00;;;;;;601481;239;26682;-62
2022/03/30 04:21:48;;;;;;;9.23;4.10;;;3.80;75.60;;;;;;601493;239;26633;-62
2022/03/30 04:24:16;;;;;;;6.73;3.60;;;3.70;75.70;;;;;;601436;238;26678;-62
2022/03/30 04:26:43;;;;;;;9.13;3.63;;;3.80;75.80;;;;;;601492;239;26878;-62
2022/03/30 04:29:11;;;;;;;11.07;3.50;;;3.80;76.40;;;;;;601551;238;26635;-62
2022/03/30 04:31:38;;;;;;;7.13;3.60;;;3.90;76.20;;;;;;601460;239;26982;-63
2022/03/30 04:34:05;;;;;;;8.13;3.03;;;3.90;75.80;;;;;;601495;239;26643;-63
2022/03/30 04:36:32;;;;;;;4.97;2.37;;;4.00;76.10;;;;;;601484;238;26673;-62
2022/03/30 04:39:00;;;;;;;11.23;3.67;;;4.20;77.40;;;;;;601499;239;26623;-62
2022/03/30 04:41:27;;;;;;;9.63;3.00;;;4.10;77.30;;;;;;601575;232;26636;-62
2022/03/30 04:43:55;;;;;;;5.70;3.03;;;4.40;77.70;;;;;;601595;239;26648;-62
2022/03/30 04:46:22;;;;;;;9.23;3.40;;;4.30;75.70;;;;;;602188;237;26991;-63
2022/03/30 04:48:50;;;;;;;8.60;3.97;;;4.30;76.10;;;;;;602985;238;26608;-62
2022/03/30 04:51:17;;;;;;;9.30;3.07;;;4.30;75.40;;;;;;602578;239;26560;-62
2022/03/30 04:53:44;;;;;;;5.93;3.20;;;4.20;75.10;;;;;;602417;239;26600;-62
2022/03/30 04:56:11;;;;;;;7.53;3.33;;;4.30;75.60;;;;;;602123;239;27337;-62
2022/03/30 04:58:38;;;;;;;8.53;3.07;;;4.30;75.50;;;;;;602146;238;26646;-62
2022/03/30 05:01:06;;;;;;;6.67;3.07;;;4.40;76.90;;;;;;602093;238;26834;-63
2022/03/30 05:03:34;;;;;;;11.50;3.00;;;4.40;76.80;;;;;;602077;239;26559;-62
2022/03/30 05:06:01;;;;;;;8.60;3.17;;;4.40;76.80;;;;;;601730;238;26651;-63
2022/03/30 05:08:28;;;;;;;7.83;3.27;;;4.50;75.60;;;;;;601812;239;26590;-63
2022/03/30 05:10:55;;;;;;;6.37;2.73;;;4.60;76.00;;;;;;601844;239;26790;-63
2022/03/30 05:13:23;;;;;;;6.73;3.27;;;4.60;74.90;;;;;;601791;238;26596;-62
2022/03/30 05:15:52;;;;;;;15.07;3.83;;;4.60;75.00;;;;;;601803;239;26615;-63
2022/03/30 05:18:20;;;;;;;4.40;2.90;;;4.60;75.00;;;;;;601822;239;26591;-63
2022/03/30 05:20:48;;;;;;;12.63;3.40;;;4.60;74.90;;;;;;601800;239;26584;-62
2022/03/30 05:23:15;;;;;;;8.40;3.83;;;4.60;74.80;;;;;;601596;239;26638;-62
2022/03/30 05:25:42;;;;;;;9.03;3.10;;;4.60;74.70;;;;;;601509;237;26640;-62
2022/03/30 05:28:09;;;;;;;9.10;3.53;;;4.70;74.70;;;;;;601510;239;26914;-63
2022/03/30 05:30:36;;;;;;;8.30;3.93;;;4.60;74.30;;;;;;601508;239;26640;-63
2022/03/30 05:33:03;;;;;;;7.37;3.30;;;4.60;74.40;;;;;;601578;238;26896;-62
2022/03/30 05:35:31;;;;;;;15.30;4.23;;;4.70;74.10;;;;;;601528;239;26647;-62
2022/03/30 05:37:59;;;;;;;7.40;2.93;;;4.70;74.20;;;;;;601566;239;26636;-62
2022/03/30 05:40:27;;;;;;;9.43;3.27;;;4.70;74.80;;;;;;601530;239;26631;-62
2022/03/30 05:42:53;;;;;;;6.47;2.70;;;4.90;74.40;;;;;;601514;238;26873;-64
2022/03/30 05:45:21;;;;;;;5.90;2.50;;;4.90;74.10;;;;;;601455;239;26624;-64
2022/03/30 05:47:49;;;;;;;3.90;2.80;;;5.00;74.80;;;;;;601512;238;26634;-66
2022/03/30 05:50:16;;;;;;;4.60;2.07;;;5.00;74.80;;;;;;601557;239;26632;-67
2022/03/30 05:52:43;;;;;;;2.73;2.00;;;5.60;82.10;;;;;;601581;239;26636;-67
2022/03/30 05:55:11;;;;;;;7.20;2.13;;;5.40;73.00;;;;;;601503;238;26853;-67
2022/03/30 05:57:38;;;;;;;7.03;3.90;;;5.30;73.20;;;;;;601848;237;26658;-67
2022/03/30 06:00:07;;;;;;;15.73;4.93;;;5.60;77.90;;;;;;602906;238;26941;-66
2022/03/30 06:02:34;;;;;;;9.07;4.40;;;5.70;76.30;;;;;;602965;239;26603;-66
2022/03/30 06:05:01;;;;;;;10.83;4.13;;;5.60;73.10;;;;;;602693;239;27080;-66
2022/03/30 06:07:28;;;;;;;8.73;3.67;;;5.50;73.50;;;;;;602647;239;26607;-66
2022/03/30 06:09:55;;;;;;;6.80;3.40;;;5.40;72.50;;;;;;602237;239;26576;-66
2022/03/30 06:12:24;;;;;;;5.13;2.80;;;5.80;72.30;;;;;;602104;238;26615;-66
2022/03/30 06:14:51;;;;;;;7.20;3.57;;;5.80;72.30;;;;;;602080;239;26597;-67
2022/03/30 06:17:19;;;;;;;5.63;2.93;;;6.00;73.90;;;;;;601901;238;26550;-67
2022/03/30 06:19:47;;;;;;;6.40;3.03;;;6.10;71.20;;;;;;601793;238;26582;-67
2022/03/30 06:22:15;;;;;;;6.28;3.00;;;6.20;72.10;;;;;;601687;238;26598;-67
2022/03/30 06:24:42;;;;;;;7.87;3.12;;;6.20;72.20;;;;;;601787;238;26809;-67
2022/03/30 06:27:10;;;;;;;6.13;2.37;;;6.20;70.00;;;;;;601825;239;26758;-66
2022/03/30 06:29:38;;;;;;;5.12;2.78;;;6.50;69.50;;;;;;602475;236;26587;-66
2022/03/30 06:32:06;;;;;;;6.30;3.07;;;6.60;70.60;;;;;;603140;235;26582;-65
2022/03/30 06:34:33;;;;;;;4.30;2.53;;;6.60;70.40;;;;;;602948;236;27097;-64
2022/03/30 06:37:01;;;;;;;4.30;2.50;;;7.30;70.70;;;;;;602786;236;26700;-62
2022/03/30 06:39:30;;;;;;;8.87;2.83;;;7.20;68.10;;;;;;608221;235;26599;-62
2022/03/30 06:41:59;;;;;;;6.37;2.40;;;7.10;68.10;;;;;;607048;234;26642;-62
2022/03/30 06:44:25;;;;;;;2.83;2.05;;;7.00;67.90;;;;;;603676;236;26850;-62
2022/03/30 06:46:53;;;;;;;5.15;2.62;;;7.00;71.90;;;;;;603162;237;26646;-63
2022/03/30 06:49:20;;;;;;;3.75;1.73;;;7.30;71.50;;;;;;607840;235;26982;-63
2022/03/30 06:51:47;;;;;;;9.32;3.00;;;7.30;68.30;;;;;;602567;234;26622;-63
2022/03/30 06:54:14;;;;;;;9.20;3.20;;;7.10;70.00;;;;;;606063;236;26553;-63
2022/03/30 06:56:42;;;;;;;11.80;3.20;;;7.20;73.30;;;;;;607413;235;26667;-63
2022/03/30 06:59:13;;;;;;;11.52;3.17;;;7.30;68.30;;;;;;605550;235;26653;-63
2022/03/30 07:01:37;;;;;;;9.45;2.70;;;7.30;67.60;;;;;;603449;236;26650;-63
2022/03/30 07:04:04;;;;;;;3.35;2.03;;;7.10;67.70;;;;;;604543;236;26589;-63
2022/03/30 07:06:32;;;;;;;8.95;2.80;;;7.20;69.60;;;;;;602703;237;26845;-63
2022/03/30 07:11:42;;;;;;;5.47;2.15;;;7.40;68.00;;;;;;612597;234;26654;-63
2022/03/30 07:14:10;;;;;;;3.95;2.25;;;7.40;66.20;;;;;;602541;237;26580;-63
2022/03/30 07:16:38;;;;;;;5.53;2.53;;;7.60;71.80;;;;;;603706;237;26606;-63
2022/03/30 07:19:06;;;;;;;4.80;2.50;;;7.60;71.50;;;;;;603322;237;26988;-63
2022/03/30 07:21:32;;;;;;;7.87;2.80;;;7.90;67.50;;;;;;609011;236;26577;-63
2022/03/30 07:24:00;;;;;;;5.15;2.30;;;7.80;65.90;;;;;;603580;232;26847;-63
2022/03/30 07:26:26;;;;;;;3.03;1.87;;;7.80;67.70;;;;;;607411;234;26598;-64
2022/03/30 07:28:54;;;;;;;4.53;1.80;;;7.80;67.60;;;;;;603213;237;26586;-63
2022/03/30 07:31:23;;;;;;;8.63;2.53;;;7.70;66.50;;;;;;604063;238;26571;-63
2022/03/30 07:33:49;;;;;;;4.15;1.60;;;7.70;65.80;;;;;;604470;238;26585;-63
2022/03/30 07:36:16;;;;;;;3.55;1.85;;;7.80;67.30;;;;;;601762;239;26614;-63
2022/03/30 07:38:44;;;;;;;2.42;1.50;;;7.90;66.60;;;;;;602448;236;26651;-63
2022/03/30 07:41:11;;;;;;;4.03;1.90;;;8.00;66.00;;;;;;606575;235;26589;-63
2022/03/30 07:43:38;;;;;;;1.58;1.48;;;7.70;65.60;;;;;;611553;235;26814;-63
2022/03/30 07:46:08;;;;;;;4.53;2.15;;;7.80;67.00;;;;;;609959;231;26660;-63
2022/03/30 07:48:33;;;;;;;3.83;1.98;;;8.00;66.50;;;;;;607464;236;26831;-65
2022/03/30 07:51:01;;;;;;;5.10;2.33;;;8.20;63.90;;;;;;609279;235;26645;-63
2022/03/30 07:53:28;;;;;;;4.50;2.20;;;8.20;65.70;;;;;;612344;235;26635;-63
2022/03/30 07:55:56;;;;;;;3.30;1.80;;;8.20;65.70;;;;;;602052;234;27449;-63
2022/03/30 07:58:23;;;;;;;4.45;1.95;;;8.20;64.10;;;;;;606533;235;26561;-64
2022/03/30 08:00:50;;;;;;;3.28;2.30;;;8.20;64.80;;;;;;605399;236;26819;-64
2022/03/30 08:03:17;;;;;;;1.85;1.60;;;8.40;66.20;;;;;;606812;236;26588;-64
2022/03/30 08:05:44;;;;;;;3.62;1.55;;;8.50;67.00;;;;;;602952;236;26944;-64
2022/03/30 08:08:13;;;;;;;3.35;1.75;;;8.50;63.90;;;;;;607871;235;26582;-64
2022/03/30 08:10:41;;;;;;;3.45;2.10;;;8.50;62.80;;;;;;601877;237;26628;-64
2022/03/30 08:13:10;;;;;;;2.42;1.90;;;8.50;62.80;;;;;;601914;239;26849;-63
2022/03/30 08:15:36;;;;;;;3.90;1.90;;;8.50;62.50;;;;;;604353;238;26586;-64
2022/03/30 08:18:05;;;;;;;3.72;2.17;;;8.50;64.20;;;;;;604291;235;27041;-64
2022/03/30 08:23:02;;;;;;;1.77;1.48;;;8.90;62.70;;;;;;604237;236;27301;-64
2022/03/30 08:25:30;;;;;;;2.60;1.70;;;9.20;60.70;;;;;;602803;237;26570;-64
2022/03/30 08:27:58;;;;;;;2.20;1.73;;;9.40;59.90;;;;;;606351;235;26565;-64
2022/03/30 08:30:26;;;;;;;3.08;1.80;;;9.50;61.30;;;;;;610595;235;26588;-64
2022/03/30 08:32:54;;;;;;;5.10;1.73;;;9.50;61.10;;;;;;607710;235;26811;-64
2022/03/30 08:35:21;;;;;;;4.53;2.40;;;9.70;61.50;;;;;;604320;237;26631;-64
2022/03/30 08:37:48;;;;;;;2.78;1.85;;;9.70;62.00;;;;;;604803;236;26856;-64
2022/03/30 08:40:15;;;;;;;4.50;1.65;;;9.90;58.70;;;;;;608380;235;26587;-65
2022/03/30 08:42:43;;;;;;;9.93;2.62;;;9.90;57.90;;;;;;605847;236;26540;-64
2022/03/30 08:45:10;;;;;;;6.40;2.10;;;9.90;57.90;;;;;;611782;235;26588;-64
2022/03/30 08:47:38;;;;;;;3.87;1.90;;;10.30;59.40;;;;;;605926;235;26582;-64
2022/03/30 08:50:06;;;;;;;6.75;1.73;;;10.90;57.00;;;;;;602548;237;26577;-63
2022/03/30 08:52:33;;;;;;;6.75;2.00;;;10.90;57.00;;;;;;607122;236;26568;-62
2022/03/30 08:55:01;;;;;;;3.62;1.67;;;10.90;54.10;;;;;;605049;235;26605;-61
2022/03/30 08:57:29;;;;;;;9.02;2.20;;;11.00;56.20;;;;;;601628;237;26595;-61
2022/03/30 09:00:18;;;;;;;7.40;2.47;;;11.10;58.40;;;;;;601912;237;26634;-61
2022/03/30 09:02:45;;;;;;;8.13;2.90;;;11.20;63.40;;;;;;603228;238;26661;-61
2022/03/30 09:05:25;;;;;;;6.12;2.78;;;11.20;62.20;;;;;;602420;237;26604;-61
2022/03/30 09:07:51;;;;;;;6.12;2.53;;;11.20;62.10;;;;;;605211;233;27377;-60
2022/03/30 09:10:21;;;;;;;62.10;12.82;;;11.50;72.40;;;;;;608044;236;26552;-61
2022/03/30 09:12:49;;;;;;;17.30;3.90;;;11.50;71.80;;;;;;605307;235;26637;-60
2022/03/30 09:15:16;;;;;;;3.67;1.70;;;11.30;67.60;;;;;;605995;234;26614;-61
2022/03/30 09:17:43;;;;;;;2.83;1.50;;;11.20;55.70;;;;;;603659;236;26866;-61
2022/03/30 09:20:17;;;;;;;4.22;1.80;;;11.20;55.10;;;;;;603986;236;26583;-61
2022/03/30 09:22:45;;;;;;;3.72;2.15;;;11.20;54.70;;;;;;609207;234;26647;-61
2022/03/30 09:25:12;;;;;;;5.05;1.87;;;11.40;54.30;;;;;;606116;235;26659;-61
2022/03/30 09:27:41;;;;;;;4.75;2.08;;;11.70;57.30;;;;;;604579;236;26636;-61
2022/03/30 09:30:07;;;;;;;4.45;2.17;;;11.70;57.30;;;;;;603608;235;26644;-61
2022/03/30 09:32:35;;;;;;;1.62;1.40;;;12.20;57.50;;;;;;603082;236;26658;-61
2022/03/30 09:35:02;;;;;;;5.30;2.30;;;12.10;55.10;;;;;;605093;236;26849;-60
2022/03/30 09:37:29;;;;;;;2.97;1.87;;;12.50;55.70;;;;;;602840;237;26585;-61
2022/03/30 09:39:56;;;;;;;7.37;2.37;;;12.30;53.10;;;;;;605970;235;27240;-61
2022/03/30 09:42:24;;;;;;;7.97;2.53;;;12.40;52.80;;;;;;608688;235;26596;-61
2022/03/30 09:44:51;;;;;;;6.78;2.28;;;12.50;52.30;;;;;;603094;235;26806;-62
2022/03/30 09:47:18;;;;;;;7.57;1.90;;;11.90;51.30;;;;;;602797;236;26640;-62
2022/03/30 09:49:48;;;;;;;10.57;2.55;;;11.80;52.90;;;;;;609738;236;26584;-62
2022/03/30 09:52:17;;;;;;;8.70;2.10;;;12.10;53.20;;;;;;607654;236;26677;-62
2022/03/30 09:54:44;;;;;;;9.25;3.03;;;12.10;53.20;;;;;;603648;238;26572;-62
2022/03/30 09:57:12;;;;;;;8.23;2.80;;;12.00;52.90;;;;;;602659;236;26825;-62
2022/03/30 10:00:02;;;;;;;5.75;2.25;;;12.40;52.70;;;;;;608558;236;26648;-62
2022/03/30 10:02:31;;;;;;;3.87;1.67;;;12.30;50.50;;;;;;601617;238;26821;-62
2022/03/30 10:04:59;;;;;;;4.32;1.80;;;12.10;54.80;;;;;;602937;237;26823;-62
2022/03/30 10:07:27;;;;;;;8.10;2.62;;;12.30;52.70;;;;;;604652;237;26604;-62
2022/03/30 10:09:56;;;;;;;6.15;1.95;;;12.60;53.20;;;;;;602087;237;26669;-63
2022/03/30 10:12:22;;;;;;;1.67;1.42;;;12.60;53.30;;;;;;603396;238;26830;-62
2022/03/30 10:14:49;;;;;;;4.62;1.40;;;12.50;51.60;;;;;;603151;237;26632;-63
2022/03/30 10:17:16;;;;;;;2.90;1.48;;;12.40;52.10;;;;;;608317;236;26841;-62
2022/03/30 10:19:44;;;;;;;1.48;1.15;;;12.30;51.90;;;;;;610004;235;26678;-62
2022/03/30 10:22:17;;;;;;;4.03;1.55;;;12.80;54.40;;;;;;609471;234;26865;-62
2022/03/30 10:25:05;;;;;;;2.80;1.40;;;13.30;53.60;;;;;;603922;236;26843;-63
2022/03/30 10:27:48;;;;;;;4.75;1.80;;;13.00;50.00;;;;;;596949;237;26652;-63
2022/03/30 10:30:15;;;;;;;2.62;1.65;;;12.60;49.70;;;;;;602109;236;26654;-63
2022/03/30 10:32:43;;;;;;;4.05;1.58;;;12.70;52.80;;;;;;602447;238;26601;-63
2022/03/30 10:35:11;;;;;;;2.47;1.33;;;12.90;52.50;;;;;;600049;239;26696;-63
2022/03/30 10:37:39;;;;;;;7.82;2.25;;;12.80;52.30;;;;;;603953;237;26594;-63
2022/03/30 10:40:07;;;;;;;1.33;1.23;;;13.00;52.80;;;;;;602267;238;26615;-62
2022/03/30 10:43:01;;;;;;;2.75;1.30;;;13.00;51.60;;;;;;603410;236;26905;-62
2022/03/30 10:45:33;;;;;;;1.73;1.20;;;13.00;51.60;;;;;;603748;235;26984;-62
2022/03/30 10:48:07;;;;;;;1.73;1.52;;;13.30;51.60;;;;;;609313;235;26588;-62
2022/03/30 10:50:35;;;;;;;3.37;1.48;;;13.30;52.10;;;;;;603680;237;26834;-62
2022/03/30 10:53:03;;;;;;;1.20;1.10;;;13.40;50.50;;;;;;605304;236;26587;-62
2022/03/30 10:55:31;;;;;;;2.33;1.55;;;13.40;50.50;;;;;;609458;236;26842;-62
2022/03/30 10:58:02;;;;;;;2.65;1.58;;;13.20;47.90;;;;;;611474;235;26606;-62
2022/03/30 11:00:29;;;;;;;2.55;1.40;;;13.20;47.90;;;;;;603471;237;26644;-62
2022/03/30 11:03:12;;;;;;;2.85;1.48;;;13.20;50.10;;;;;;603570;238;26852;-63
2022/03/30 11:05:39;;;;;;;2.83;1.60;;;12.80;50.40;;;;;;601809;236;26613;-62
2022/03/30 11:08:07;;;;;;;2.05;1.40;;;13.10;53.30;;;;;;601459;239;26586;-62
2022/03/30 11:10:45;;;;;;;3.83;1.60;;;13.50;50.70;;;;;;599763;238;26599;-62
2022/03/30 11:13:12;;;;;;;2.03;1.27;;;13.50;50.50;;;;;;603588;236;26640;-62
2022/03/30 11:15:53;;;;;;;3.08;1.48;;;13.90;48.60;;;;;;605286;234;27246;-62
2022/03/30 11:18:19;;;;;;;1.30;1.20;;;13.90;48.70;;;;;;605258;235;26575;-62
2022/03/30 11:20:58;;;;;;;1.40;1.25;;;14.50;49.90;;;;;;611132;234;27384;-62
2022/03/30 11:23:28;;;;;;;3.03;1.37;;;14.30;49.80;;;;;;604809;235;26624;-62
2022/03/30 11:25:56;;;;;;;1.37;1.20;;;14.20;48.80;;;;;;609465;236;26649;-62
2022/03/30 11:28:21;;;;;;;2.58;1.48;;;14.20;48.90;;;;;;606935;236;26603;-62
2022/03/30 11:30:49;;;;;;;1.35;1.25;;;14.20;47.10;;;;;;601311;238;26797;-65
2022/03/30 11:33:21;;;;;;;3.22;1.90;;;13.70;49.50;;;;;;602698;235;26573;-62
2022/03/30 11:35:48;;;;;;;3.42;2.35;;;13.70;49.60;;;;;;603988;238;26606;-62
2022/03/30 11:38:15;;;;;;;2.20;1.48;;;13.90;52.10;;;;;;603839;236;26624;-62
2022/03/30 11:40:44;;;;;;;4.62;2.30;;;14.10;54.60;;;;;;611057;235;26655;-63
2022/03/30 11:43:11;;;;;;;4.47;2.20;;;14.40;49.00;;;;;;604888;234;26601;-62
2022/03/30 11:45:38;;;;;;;3.30;1.87;;;14.30;48.70;;;;;;604328;236;26633;-62
2022/03/30 11:48:07;;;;;;;1.75;1.08;;;14.20;50.00;;;;;;609736;236;26585;-62
2022/03/30 11:50:43;;;;;;;2.05;1.30;;;14.10;47.50;;;;;;606254;235;26835;-63
2022/03/30 11:53:12;;;;;;;2.17;1.45;;;14.10;47.40;;;;;;603595;238;26582;-63
2022/03/30 11:55:49;;;;;;;4.62;2.05;;;13.20;48.20;;;;;;602393;234;26644;-62
2022/03/30 11:58:35;;;;;;;3.33;1.60;;;13.10;48.50;;;;;;608130;234;26587;-62
2022/03/30 12:01:03;;;;;;;4.37;1.85;;;13.10;48.50;;;;;;606637;234;26664;-61
2022/03/30 12:03:30;;;;;;;2.05;1.12;;;13.10;50.20;;;;;;604772;237;26583;-61
2022/03/30 12:05:57;;;;;;;2.87;1.30;;;13.10;50.10;;;;;;608988;235;26918;-60
2022/03/30 12:08:25;;;;;;;1.12;1.00;;;12.60;48.30;;;;;;603097;238;26649;-61
2022/03/30 12:11:00;;;;;;;1.77;1.05;;;12.30;50.10;;;;;;603505;237;26970;-60
2022/03/30 12:13:27;;;;;;;1.58;1.33;;;12.10;48.90;;;;;;608790;236;26569;-61
2022/03/30 12:16:05;;;;;;;2.12;1.45;;;12.10;50.70;;;;;;604858;235;27289;-60
2022/03/30 12:18:34;;;;;;;3.35;1.23;;;12.10;50.60;;;;;;603556;237;26586;-60
2022/03/30 12:21:01;;;;;;;1.90;1.30;;;11.80;50.90;;;;;;602846;236;26586;-60
2022/03/30 12:23:29;;;;;;;2.83;1.87;;;12.00;49.70;;;;;;602715;238;26583;-60
2022/03/30 12:25:57;;;;;;;1.62;1.30;;;11.70;49.70;;;;;;610083;236;26653;-60
2022/03/30 12:28:31;;;;;;;1.90;1.70;;;11.60;50.60;;;;;;610142;236;26678;-60
2022/03/30 12:30:59;;;;;;;4.90;2.58;;;11.90;50.80;;;;;;606937;235;26586;-61
2022/03/30 12:33:26;;;;;;;5.00;2.70;;;11.90;50.70;;;;;;602151;237;26626;-60
2022/03/30 12:35:54;;;;;;;2.00;1.37;;;12.00;55.50;;;;;;603982;237;26597;-60
2022/03/30 12:38:20;;;;;;;2.75;2.20;;;12.30;54.20;;;;;;602493;238;26855;-60
2022/03/30 12:40:48;;;;;;;1.45;1.30;;;12.30;50.70;;;;;;602864;238;26589;-61
2022/03/30 12:43:15;;;;;;;2.45;1.42;;;12.20;56.10;;;;;;603694;237;26882;-61
2022/03/30 12:45:46;;;;;;;2.83;1.70;;;12.30;50.80;;;;;;602007;233;26646;-60
2022/03/30 12:48:14;;;;;;;2.03;1.83;;;12.10;54.00;;;;;;606134;236;26813;-61
2022/03/30 12:50:41;;;;;;;3.17;2.20;;;12.30;50.50;;;;;;605883;235;26592;-60
2022/03/30 12:53:16;;;;;;;1.62;1.20;;;11.80;49.70;;;;;;601573;239;26868;-60
2022/03/30 12:55:45;;;;;;;2.40;1.50;;;11.50;50.60;;;;;;608645;235;26906;-60
2022/03/30 12:58:15;;;;;;;2.05;1.20;;;11.50;50.60;;;;;;604463;238;26837;-60
2022/03/30 13:00:41;;;;;;;4.07;1.27;;;11.40;50.80;;;;;;604280;238;26792;-60
2022/03/30 13:03:13;;;;;;;1.80;1.50;;;11.90;55.80;;;;;;607908;236;26584;-61
2022/03/30 13:05:41;;;;;;;3.08;2.37;;;11.90;55.90;;;;;;604879;236;26618;-60
2022/03/30 13:08:16;;;;;;;4.90;2.97;;;11.80;51.80;;;;;;602963;237;26859;-60